Maersk Bulan — 9V7693 — position and weather

sailwx.info

Track history (hours):
 
Tides and Currents Weather Stations Pressure Air Temp Water Temp Dewpoint Dewpoint Depression Visibility Wind Speed Wind Dir Waves Ship Positions

Maersk Bulan

Last reported at 2017-Sep-21 17:45 UTC. Time now 2017-Sep-24 01:41 UTC.
Position N 35°18' W 008°52'.

Length 223 m; draft 11.4 m.

Type: Ship (hazmat cat A). MMSI: 563455000.

Date/timePositionNaut miles runAvg speedWind from/ knotsBaromVisibWave heightAir tempDewpointWater temp
2017-Sep-21 17:45N 35°18' W 008°52'16312.1
2017-Sep-21 04:15N 35°58' W 005°37'311.3
2017-Sep-21 04:00N 35°58' W 005°34'511.1
2017-Sep-21 03:31N 36°00' W 005°27'510.5
2017-Sep-21 03:01N 36°04' W 005°24'5 9.7
2017-Sep-21 02:31N 36°09' W 005°26'1 1.0
2017-Sep-21 01:59N 36°09' W 005°26'0 0.0
2017-Sep-21 01:29N 36°09' W 005°26'0 0.0
2017-Sep-21 00:59N 36°09' W 005°26'0 0.0
2017-Sep-21 00:29N 36°09' W 005°26'0 0.0
2017-Sep-20 23:56N 36°09' W 005°26'0 0.0
2017-Sep-20 23:29N 36°09' W 005°26'0 0.0
2017-Sep-20 22:59N 36°09' W 005°26'0 0.0
2017-Sep-20 22:26N 36°09' W 005°26'0 0.0
2017-Sep-20 21:53N 36°09' W 005°26'0 0.1
2017-Sep-20 21:23N 36°09' W 005°26'0 0.0
2017-Sep-20 20:59N 36°09' W 005°26'0 0.0
2017-Sep-20 20:29N 36°09' W 005°26'0 0.0
2017-Sep-20 19:59N 36°09' W 005°26'0 0.0
2017-Sep-20 19:29N 36°09' W 005°26'0 0.1
2017-Sep-20 18:59N 36°09' W 005°26'0 0.0
2017-Sep-20 15:06N 36°09' W 005°26'0 0.1
2017-Sep-20 14:43N 36°09' W 005°26'0 0.0
2017-Sep-20 13:59N 36°09' W 005°26'0 0.0
2017-Sep-20 13:29N 36°09' W 005°26'0 0.0
2017-Sep-20 12:56N 36°09' W 005°26'0 0.0
2017-Sep-20 05:32N 36°09' W 005°26'0 0.1
2017-Sep-20 05:29N 36°09' W 005°26'0 0.0
2017-Sep-20 04:59N 36°09' W 005°26'0 0.0
2017-Sep-20 04:29N 36°09' W 005°26'0 0.0
2017-Sep-20 03:59N 36°09' W 005°26'0 0.0
2017-Sep-20 03:29N 36°09' W 005°26'0 0.0
2017-Sep-20 02:59N 36°09' W 005°26'0 0.0
2017-Sep-20 02:29N 36°09' W 005°26'0 0.0
2017-Sep-20 01:59N 36°09' W 005°26'0 0.0
2017-Sep-20 01:29N 36°09' W 005°26'0 0.0
2017-Sep-20 00:56N 36°09' W 005°26'0 0.0
2017-Sep-20 00:29N 36°09' W 005°26'0 0.1
2017-Sep-19 23:59N 36°09' W 005°26'0 0.0
2017-Sep-19 22:20N 36°09' W 005°26'0 0.0
2017-Sep-19 21:41N 36°09' W 005°26'0 0.1
2017-Sep-19 21:26N 36°09' W 005°26'0 0.0
2017-Sep-19 20:56N 36°09' W 005°26'0 0.0
2017-Sep-19 20:27N 36°09' W 005°26'2 4.3
2017-Sep-19 19:59N 36°08' W 005°24'3 5.2
2017-Sep-19 19:28N 36°06' W 005°22'3 6.8
2017-Sep-19 19:00N 36°05' W 005°19'3 5.0
2017-Sep-19 18:30N 36°05' W 005°15'1 1.0
2017-Sep-19 18:00N 36°05' W 005°16'1 2.5
2017-Sep-19 17:30N 36°05' W 005°17'4 9.0
2017-Sep-19 17:00N 36°06' W 005°12'510.0
2017-Sep-19 16:30N 36°06' W 005°06'214 7.7
2017-Sep-18 12:48N 36°33' W 000°42'610.8
2017-Sep-18 12:17N 36°34' W 000°35'511.0
2017-Sep-18 11:53N 36°34' W 000°30'3411.2
2017-Sep-18 08:48N 36°39' E 000°13'517.3
2017-Sep-18 08:30N 36°40' E 000°19'911.6
2017-Sep-18 07:45N 36°42' E 000°29'811.5
2017-Sep-18 07:06N 36°43' E 000°39'111.5
2017-Sep-18 07:00N 36°43' E 000°40'611.4
2017-Sep-18 06:30N 36°44' E 000°47'1211.3
2017-Sep-18 05:25N 36°46' E 001°02'610.8
2017-Sep-18 04:52N 36°47' E 001°10'42111.8
2017-Sep-16 17:11N 37°40' E 009°54'211.6
2017-Sep-16 17:00N 37°40' E 009°56'611.4
2017-Sep-16 16:29N 37°40' E 010°04'511.2
2017-Sep-16 16:00N 37°39' E 010°11'611.4
2017-Sep-16 15:30N 37°39' E 010°18'1211.1
2017-Sep-16 14:26N 37°36' E 010°33'511.6
2017-Sep-16 14:00N 37°35' E 010°39'611.9
2017-Sep-16 13:30N 37°33' E 010°46'611.7
2017-Sep-16 13:00N 37°32' E 010°53'611.8
2017-Sep-16 12:30N 37°30' E 011°00'612.0
2017-Sep-16 12:00N 37°28' E 011°07'612.0
2017-Sep-16 11:30N 37°26' E 011°14'612.1
2017-Sep-16 11:00N 37°23' E 011°21'612.2
2017-Sep-16 10:30N 37°20' E 011°28'612.5
2017-Sep-16 10:00N 37°17' E 011°35'612.2
2017-Sep-16 09:30N 37°14' E 011°41'612.0
2017-Sep-16 09:00N 37°10' E 011°47'712.1
2017-Sep-16 08:28N 37°07' E 011°54'612.0
2017-Sep-16 08:00N 37°04' E 012°00'611.9
2017-Sep-16 07:30N 37°02' E 012°07'611.7
2017-Sep-16 07:00N 36°60' E 012°14'611.9
2017-Sep-16 06:30N 36°57' E 012°20'612.1
2017-Sep-16 06:00N 36°55' E 012°28'611.9
2017-Sep-16 05:30N 36°53' E 012°35'611.8
2017-Sep-16 05:00N 36°52' E 012°42'611.9
2017-Sep-16 04:30N 36°51' E 012°49'611.9
2017-Sep-16 04:00N 36°50' E 012°57'611.7
2017-Sep-16 03:30N 36°49' E 013°04'611.7
2017-Sep-16 03:00N 36°48' E 013°11'611.8
2017-Sep-16 02:30N 36°47' E 013°18'611.5
2017-Sep-16 02:00N 36°46' E 013°25'611.4
2017-Sep-16 01:29N 36°45' E 013°32'511.0
2017-Sep-16 01:00N 36°42' E 013°38'611.4
2017-Sep-16 00:30N 36°38' E 013°43'611.4
2017-Sep-16 00:00N 36°36' E 013°50'611.3
2017-Sep-15 23:30N 36°34' E 013°57'611.3
2017-Sep-15 23:00N 36°33' E 014°03'611.2
2017-Sep-15 22:30N 36°31' E 014°10'611.6
2017-Sep-15 22:00N 36°30' E 014°17'611.5
2017-Sep-15 21:30N 36°29' E 014°24'611.2
2017-Sep-15 21:00N 36°27' E 014°31'611.2
2017-Sep-15 20:30N 36°25' E 014°37'511.0
2017-Sep-15 20:00N 36°23' E 014°43'611.1
2017-Sep-15 19:30N 36°22' E 014°50'611.2
2017-Sep-15 19:00N 36°20' E 014°57'511.0
2017-Sep-15 18:30N 36°20' E 015°03'611.2
2017-Sep-15 18:00N 36°20' E 015°10'611.5
2017-Sep-15 17:30N 36°20' E 015°18'1712.1
2017-Sep-15 16:06N 36°20' E 015°39'112.3
2017-Sep-15 16:00N 36°20' E 015°40'612.3
2017-Sep-15 15:30N 36°20' E 015°48'612.0
2017-Sep-15 15:00N 36°20' E 015°55'612.1
2017-Sep-15 14:30N 36°20' E 016°03'611.9
2017-Sep-15 14:00N 36°20' E 016°10'811.7
2017-Sep-15 13:18N 36°20' E 016°20'411.7
2017-Sep-15 12:58N 36°20' E 016°25'20212.8
2017-Sep-14 21:10N 36°20' E 020°36'213.2
2017-Sep-14 21:01N 36°20' E 020°38'813.1
2017-Sep-14 20:23N 36°19' E 020°48'3212.9
2017-Sep-14 17:52N 36°19' E 021°29'1212.3
2017-Sep-14 16:53N 36°20' E 021°44'612.3
2017-Sep-14 16:25N 36°20' E 021°51'279 6.7
2017-Sep-12 22:59N 39°46' E 025°49'13914.5
2017-Sep-12 13:27N 40°45' E 028°33'920.3
2017-Sep-12 13:00N 40°45' E 028°45'1220.4
2017-Sep-12 12:24N 40°45' E 029°01'819.9
2017-Sep-12 12:00N 40°44' E 029°12'815.4
2017-Sep-12 11:30N 40°44' E 029°22'  
Track history (hours):
 
Tides and Currents Weather Stations Pressure Air Temp Water Temp Dewpoint Dewpoint Depression Visibility Wind Speed Wind Dir Waves Ship Positions

Maersk Bulan

Last reported at 2017-Sep-21 17:45 UTC. Time now 2017-Sep-24 01:41 UTC.
Position N 35°18' W 008°52'.

Length 223 m; draft 11.4 m.

Type: Ship (hazmat cat A). MMSI: 563455000.

Date/timePositionNaut miles runAvg speedWind from/ knotsBaromVisibWave heightAir tempDewpointWater temp
2017-Sep-21 17:45N 35°18' W 008°52'16312.1
2017-Sep-21 04:15N 35°58' W 005°37'311.3
2017-Sep-21 04:00N 35°58' W 005°34'511.1
2017-Sep-21 03:31N 36°00' W 005°27'510.5
2017-Sep-21 03:01N 36°04' W 005°24'5 9.7
2017-Sep-21 02:31N 36°09' W 005°26'1 1.0
2017-Sep-21 01:59N 36°09' W 005°26'0 0.0
2017-Sep-21 01:29N 36°09' W 005°26'0 0.0
2017-Sep-21 00:59N 36°09' W 005°26'0 0.0
2017-Sep-21 00:29N 36°09' W 005°26'0 0.0
2017-Sep-20 23:56N 36°09' W 005°26'0 0.0
2017-Sep-20 23:29N 36°09' W 005°26'0 0.0
2017-Sep-20 22:59N 36°09' W 005°26'0 0.0
2017-Sep-20 22:26N 36°09' W 005°26'0 0.0
2017-Sep-20 21:53N 36°09' W 005°26'0 0.1
2017-Sep-20 21:23N 36°09' W 005°26'0 0.0
2017-Sep-20 20:59N 36°09' W 005°26'0 0.0
2017-Sep-20 20:29N 36°09' W 005°26'0 0.0
2017-Sep-20 19:59N 36°09' W 005°26'0 0.0
2017-Sep-20 19:29N 36°09' W 005°26'0 0.1
2017-Sep-20 18:59N 36°09' W 005°26'0 0.0
2017-Sep-20 15:06N 36°09' W 005°26'0 0.1
2017-Sep-20 14:43N 36°09' W 005°26'0 0.0
2017-Sep-20 13:59N 36°09' W 005°26'0 0.0
2017-Sep-20 13:29N 36°09' W 005°26'0 0.0
2017-Sep-20 12:56N 36°09' W 005°26'0 0.0
2017-Sep-20 05:32N 36°09' W 005°26'0 0.1
2017-Sep-20 05:29N 36°09' W 005°26'0 0.0
2017-Sep-20 04:59N 36°09' W 005°26'0 0.0
2017-Sep-20 04:29N 36°09' W 005°26'0 0.0
2017-Sep-20 03:59N 36°09' W 005°26'0 0.0
2017-Sep-20 03:29N 36°09' W 005°26'0 0.0
2017-Sep-20 02:59N 36°09' W 005°26'0 0.0
2017-Sep-20 02:29N 36°09' W 005°26'0 0.0
2017-Sep-20 01:59N 36°09' W 005°26'0 0.0
2017-Sep-20 01:29N 36°09' W 005°26'0 0.0
2017-Sep-20 00:56N 36°09' W 005°26'0 0.0
2017-Sep-20 00:29N 36°09' W 005°26'0 0.1
2017-Sep-19 23:59N 36°09' W 005°26'0 0.0
2017-Sep-19 22:20N 36°09' W 005°26'0 0.0
2017-Sep-19 21:41N 36°09' W 005°26'0 0.1
2017-Sep-19 21:26N 36°09' W 005°26'0 0.0
2017-Sep-19 20:56N 36°09' W 005°26'0 0.0
2017-Sep-19 20:27N 36°09' W 005°26'2 4.3
2017-Sep-19 19:59N 36°08' W 005°24'3 5.2
2017-Sep-19 19:28N 36°06' W 005°22'3 6.8
2017-Sep-19 19:00N 36°05' W 005°19'3 5.0
2017-Sep-19 18:30N 36°05' W 005°15'1 1.0
2017-Sep-19 18:00N 36°05' W 005°16'1 2.5
2017-Sep-19 17:30N 36°05' W 005°17'4 9.0
2017-Sep-19 17:00N 36°06' W 005°12'510.0
2017-Sep-19 16:30N 36°06' W 005°06'214 7.7
2017-Sep-18 12:48N 36°33' W 000°42'610.8
2017-Sep-18 12:17N 36°34' W 000°35'511.0
2017-Sep-18 11:53N 36°34' W 000°30'3411.2
2017-Sep-18 08:48N 36°39' E 000°13'517.3
2017-Sep-18 08:30N 36°40' E 000°19'911.6
2017-Sep-18 07:45N 36°42' E 000°29'811.5
2017-Sep-18 07:06N 36°43' E 000°39'111.5
2017-Sep-18 07:00N 36°43' E 000°40'611.4
2017-Sep-18 06:30N 36°44' E 000°47'1211.3
2017-Sep-18 05:25N 36°46' E 001°02'610.8
2017-Sep-18 04:52N 36°47' E 001°10'42111.8
2017-Sep-16 17:11N 37°40' E 009°54'211.6
2017-Sep-16 17:00N 37°40' E 009°56'611.4
2017-Sep-16 16:29N 37°40' E 010°04'511.2
2017-Sep-16 16:00N 37°39' E 010°11'611.4
2017-Sep-16 15:30N 37°39' E 010°18'1211.1
2017-Sep-16 14:26N 37°36' E 010°33'511.6
2017-Sep-16 14:00N 37°35' E 010°39'611.9
2017-Sep-16 13:30N 37°33' E 010°46'611.7
2017-Sep-16 13:00N 37°32' E 010°53'611.8
2017-Sep-16 12:30N 37°30' E 011°00'612.0
2017-Sep-16 12:00N 37°28' E 011°07'612.0
2017-Sep-16 11:30N 37°26' E 011°14'612.1
2017-Sep-16 11:00N 37°23' E 011°21'612.2
2017-Sep-16 10:30N 37°20' E 011°28'612.5
2017-Sep-16 10:00N 37°17' E 011°35'612.2
2017-Sep-16 09:30N 37°14' E 011°41'612.0
2017-Sep-16 09:00N 37°10' E 011°47'712.1
2017-Sep-16 08:28N 37°07' E 011°54'612.0
2017-Sep-16 08:00N 37°04' E 012°00'611.9
2017-Sep-16 07:30N 37°02' E 012°07'611.7
2017-Sep-16 07:00N 36°60' E 012°14'611.9
2017-Sep-16 06:30N 36°57' E 012°20'612.1
2017-Sep-16 06:00N 36°55' E 012°28'611.9
2017-Sep-16 05:30N 36°53' E 012°35'611.8
2017-Sep-16 05:00N 36°52' E 012°42'611.9
2017-Sep-16 04:30N 36°51' E 012°49'611.9
2017-Sep-16 04:00N 36°50' E 012°57'611.7
2017-Sep-16 03:30N 36°49' E 013°04'611.7
2017-Sep-16 03:00N 36°48' E 013°11'611.8
2017-Sep-16 02:30N 36°47' E 013°18'611.5
2017-Sep-16 02:00N 36°46' E 013°25'611.4
2017-Sep-16 01:29N 36°45' E 013°32'511.0
2017-Sep-16 01:00N 36°42' E 013°38'611.4
2017-Sep-16 00:30N 36°38' E 013°43'611.4
2017-Sep-16 00:00N 36°36' E 013°50'611.3
2017-Sep-15 23:30N 36°34' E 013°57'611.3
2017-Sep-15 23:00N 36°33' E 014°03'611.2
2017-Sep-15 22:30N 36°31' E 014°10'611.6
2017-Sep-15 22:00N 36°30' E 014°17'611.5
2017-Sep-15 21:30N 36°29' E 014°24'611.2
2017-Sep-15 21:00N 36°27' E 014°31'611.2
2017-Sep-15 20:30N 36°25' E 014°37'511.0
2017-Sep-15 20:00N 36°23' E 014°43'611.1
2017-Sep-15 19:30N 36°22' E 014°50'611.2
2017-Sep-15 19:00N 36°20' E 014°57'511.0
2017-Sep-15 18:30N 36°20' E 015°03'611.2
2017-Sep-15 18:00N 36°20' E 015°10'611.5
2017-Sep-15 17:30N 36°20' E 015°18'1712.1
2017-Sep-15 16:06N 36°20' E 015°39'112.3
2017-Sep-15 16:00N 36°20' E 015°40'612.3
2017-Sep-15 15:30N 36°20' E 015°48'612.0
2017-Sep-15 15:00N 36°20' E 015°55'612.1
2017-Sep-15 14:30N 36°20' E 016°03'611.9
2017-Sep-15 14:00N 36°20' E 016°10'811.7
2017-Sep-15 13:18N 36°20' E 016°20'411.7
2017-Sep-15 12:58N 36°20' E 016°25'20212.8
2017-Sep-14 21:10N 36°20' E 020°36'213.2
2017-Sep-14 21:01N 36°20' E 020°38'813.1
2017-Sep-14 20:23N 36°19' E 020°48'3212.9
2017-Sep-14 17:52N 36°19' E 021°29'1212.3
2017-Sep-14 16:53N 36°20' E 021°44'612.3
2017-Sep-14 16:25N 36°20' E 021°51'279 6.7
2017-Sep-12 22:59N 39°46' E 025°49'13914.5
2017-Sep-12 13:27N 40°45' E 028°33'920.3
2017-Sep-12 13:00N 40°45' E 028°45'1220.4
2017-Sep-12 12:24N 40°45' E 029°01'819.9
2017-Sep-12 12:00N 40°44' E 029°12'815.4
2017-Sep-12 11:30N 40°44' E 029°22'  

Dump ship's entire track history